Map

Track Data

SID SEASON NUMBER BASIN SUBBASIN NAME ISO_TIME NATURE LAT LON WMO_WIND WMO_PRES WMO_AGENCY TRACK_TYPE DIST2LAND LANDFALL IFLAG USA_AGENCY USA_ATCF_ID USA_LAT USA_LON USA_RECORD USA_STATUS USA_WIND USA_PRES USA_SSHS USA_R34_NE USA_R34_SE USA_R34_SW USA_R34_NW USA_R50_NE USA_R50_SE USA_R50_SW USA_R50_NW USA_R64_NE USA_R64_SE USA_R64_SW USA_R64_NW USA_POCI USA_ROCI USA_RMW USA_EYE TOKYO_LAT TOKYO_LON TOKYO_GRADE TOKYO_WIND TOKYO_PRES TOKYO_R50_DIR TOKYO_R50_LONG TOKYO_R50_SHORT TOKYO_R30_DIR TOKYO_R30_LONG TOKYO_R30_SHORT TOKYO_LAND CMA_LAT CMA_LON CMA_CAT CMA_WIND CMA_PRES HKO_LAT HKO_LON HKO_CAT HKO_WIND HKO_PRES NEWDELHI_LAT NEWDELHI_LON NEWDELHI_GRADE NEWDELHI_WIND NEWDELHI_PRES NEWDELHI_CI NEWDELHI_DP NEWDELHI_POCI REUNION_LAT REUNION_LON REUNION_TYPE REUNION_WIND REUNION_PRES REUNION_TNUM REUNION_CI REUNION_RMW REUNION_R34_NE REUNION_R34_SE REUNION_R34_SW REUNION_R34_NW REUNION_R50_NE REUNION_R50_SE REUNION_R50_SW REUNION_R50_NW REUNION_R64_NE REUNION_R64_SE REUNION_R64_SW REUNION_R64_NW BOM_LAT BOM_LON BOM_TYPE BOM_WIND BOM_PRES BOM_TNUM BOM_CI BOM_RMW BOM_R34_NE BOM_R34_SE BOM_R34_SW BOM_R34_NW BOM_R50_NE BOM_R50_SE BOM_R50_SW BOM_R50_NW BOM_R64_NE BOM_R64_SE BOM_R64_SW BOM_R64_NW BOM_ROCI BOM_POCI BOM_EYE BOM_POS_METHOD BOM_PRES_METHOD NADI_LAT NADI_LON NADI_CAT NADI_WIND NADI_PRES WELLINGTON_LAT WELLINGTON_LON WELLINGTON_WIND WELLINGTON_PRES DS824_LAT DS824_LON DS824_STAGE DS824_WIND DS824_PRES TD9636_LAT TD9636_LON TD9636_STAGE TD9636_WIND TD9636_PRES TD9635_LAT TD9635_LON TD9635_WIND TD9635_PRES TD9635_ROCI NEUMANN_LAT NEUMANN_LON NEUMANN_CLASS NEUMANN_WIND NEUMANN_PRES MLC_LAT MLC_LON MLC_CLASS MLC_WIND MLC_PRES USA_GUST BOM_GUST BOM_GUST_PER REUNION_GUST REUNION_GUST_PER USA_SEAHGT USA_SEARAD_NE USA_SEARAD_SE USA_SEARAD_SW USA_SEARAD_NW STORM_SPEED STORM_DIR
1939223N14147 1939 50 WP MM NOT_NAMED 1939-08-11 10:00:00 NR 14.4000 147.000 main 1848 1848 __________O___ -1 14.4000 147.000 7 11 338
1939223N14147 1939 50 WP MM NOT_NAMED 1939-08-11 12:00:00 NR 14.7336 146.859 main 1882 1893 __________P___ -1 14.7336 146.859 7 11 338
1939223N14147 1939 50 WP MM NOT_NAMED 1939-08-11 15:00:00 NR 15.2214 146.662 main 1938 1938 __________P___ -1 15.2214 146.662 7 10 340
1939223N14147 1939 50 WP MM NOT_NAMED 1939-08-11 18:00:00 NR 15.6767 146.505 main 1994 1994 __________P___ -1 15.6767 146.505 7 9 344
1939223N14147 1939 50 WP MM NOT_NAMED 1939-08-11 21:00:00 NR 16.0803 146.412 main 2038 2038 __________P___ -1 16.0803 146.412 7 8 349
1939223N14147 1939 50 WP MM NOT_NAMED 1939-08-11 22:00:00 NR 16.2000 146.400 main 2050 2050 __________O___ -1 16.2000 146.400 7 7 355
1939223N14147 1939 50 WP MM NOT_NAMED 1939-08-12 00:00:00 NR 16.4149 146.405 main 2072 2072 __________P___ -1 16.4149 146.405 7 6 6
1939223N14147 1939 50 WP MM NOT_NAMED 1939-08-12 03:00:00 NR 16.6869 146.465 main 2105 2105 __________P___ -1 16.6869 146.465 7 5 15
1939223N14147 1939 50 WP MM NOT_NAMED 1939-08-12 06:00:00 NR 16.9179 146.544 main 2114 2096 __________P___ -1 16.9179 146.544 7 5 16
1939223N14147 1939 50 WP MM NOT_NAMED 1939-08-12 09:00:00 NR 17.1298 146.597 main 2096 2085 __________P___ -1 17.1298 146.597 7 4 12
1939223N14147 1939 50 WP MM NOT_NAMED 1939-08-12 10:00:00 NR 17.2000 146.600 main 2085 2064 __________O___ -1 17.2000 146.600 7 5 0
1939223N14147 1939 50 WP MM NOT_NAMED 1939-08-12 12:00:00 NR 17.3740 146.573 main 2064 2039 __________P___ -1 17.3740 146.573 7 5 346
1939223N14147 1939 50 WP MM NOT_NAMED 1939-08-12 15:00:00 NR 17.6291 146.487 main 2039 2004 __________P___ -1 17.6291 146.487 7 5 337
1939223N14147 1939 50 WP MM NOT_NAMED 1939-08-12 18:00:00 NR 17.8605 146.352 main 2004 1987 __________P___ -1 17.8605 146.352 7 5 324
1939223N14147 1939 50 WP MM NOT_NAMED 1939-08-12 21:00:00 NR 18.0496 146.170 main 1987 1973 __________P___ -1 18.0496 146.170 7 5 315
1939223N14147 1939 50 WP MM NOT_NAMED 1939-08-12 22:00:00 NR 18.1000 146.100 main 1973 1959 __________O___ -1 18.1000 146.100 7 5 301
1939223N14147 1939 50 WP MM NOT_NAMED 1939-08-13 00:00:00 NR 18.1760 145.951 main 1959 1951 __________P___ -1 18.1760 145.951 7 5 290
1939223N14147 1939 50 WP MM NOT_NAMED 1939-08-13 03:00:00 NR 18.2459 145.689 main 1951 1931 __________P___ -1 18.2459 145.689 7 5 281
1939223N14147 1939 50 WP MM NOT_NAMED 1939-08-13 06:00:00 NR 18.2794 145.399 main 1931 1923 __________P___ -1 18.2794 145.399 7 6 275
1939223N14147 1939 50 WP MM NOT_NAMED 1939-08-13 09:00:00 NR 18.2953 145.099 main 1923 1918 __________P___ -1 18.2953 145.099 7 6 273
1939223N14147 1939 50 WP MM NOT_NAMED 1939-08-13 10:00:00 NR 18.3000 145.000 main 1918 1909 __________O___ -1 18.3000 145.000 7 5 276
1939223N14147 1939 50 WP MM NOT_NAMED 1939-08-13 12:00:00 NR 18.3221 144.832 main 1909 1900 __________P___ -1 18.3221 144.832 7 5 277
1939223N14147 1939 50 WP MM NOT_NAMED 1939-08-13 15:00:00 NR 18.3491 144.581 main 1900 1876 __________P___ -1 18.3491 144.581 7 5 276
1939223N14147 1939 50 WP MM NOT_NAMED 1939-08-13 18:00:00 NR 18.3715 144.314 main 1876 1863 __________P___ -1 18.3715 144.314 7 5 275
1939223N14147 1939 50 WP MM NOT_NAMED 1939-08-13 21:00:00 NR 18.3927 144.012 main 1863 1859 __________P___ -1 18.3927 144.012 7 6 274
1939223N14147 1939 50 WP MM NOT_NAMED 1939-08-13 22:00:00 NR 18.4000 143.900 main 1859 1850 __________O___ -1 18.4000 143.900 7 7 275
1939223N14147 1939 50 WP MM NOT_NAMED 1939-08-14 00:00:00 NR 18.4193 143.656 main 1850 1833 __________P___ -1 18.4193 143.656 7 7 274
1939223N14147 1939 50 WP MM NOT_NAMED 1939-08-14 03:00:00 NR 18.4482 143.253 main 1833 1803 __________P___ -1 18.4482 143.253 7 8 274
1939223N14147 1939 50 WP MM NOT_NAMED 1939-08-14 06:00:00 NR 18.4745 142.815 main 1803 1788 __________P___ -1 18.4745 142.815 7 9 273
1939223N14147 1939 50 WP MM NOT_NAMED 1939-08-14 09:00:00 NR 18.4949 142.356 main 1788 1781 __________P___ -1 18.4949 142.356 7 9 273
1939223N14147 1939 50 WP MM NOT_NAMED 1939-08-14 10:00:00 NR 18.5000 142.200 main 1781 1771 __________O___ -1 18.5000 142.200 7 9 271
1939223N14147 1939 50 WP MM NOT_NAMED 1939-08-14 12:00:00 NR 18.5055 141.897 main 1771 1754 __________P___ -1 18.5055 141.897 7 9 271
1939223N14147 1939 50 WP MM NOT_NAMED 1939-08-14 15:00:00 NR 18.5076 141.431 main 1754 1733 __________P___ -1 18.5076 141.431 7 9 270
1939223N14147 1939 50 WP MM NOT_NAMED 1939-08-14 18:00:00 NR 18.5051 140.952 main 1733 1706 __________P___ -1 18.5051 140.952 7 9 270
1939223N14147 1939 50 WP MM NOT_NAMED 1939-08-14 21:00:00 NR 18.5011 140.464 main 1706 1695 __________P___ -1 18.5011 140.464 7 9 270
1939223N14147 1939 50 WP MM NOT_NAMED 1939-08-14 22:00:00 NR 18.5000 140.300 main 1695 1680 __________O___ -1 18.5000 140.300 7 9 270
1939223N14147 1939 50 WP MM NOT_NAMED 1939-08-15 00:00:00 NR 18.4996 139.983 main 1680 1653 __________P___ -1 18.4996 139.983 7 9 270
1939223N14147 1939 50 WP MM NOT_NAMED 1939-08-15 03:00:00 NR 18.4991 139.501 main 1653 1609 __________P___ -1 18.4991 139.501 7 9 270
1939223N14147 1939 50 WP MM NOT_NAMED 1939-08-15 06:00:00 NR 18.4991 139.004 main 1609 1561 __________P___ -1 18.4991 139.004 7 10 270
1939223N14147 1939 50 WP MM NOT_NAMED 1939-08-15 09:00:00 NR 18.4997 138.481 main 1561 1542 __________P___ -1 18.4997 138.481 7 10 270
1939223N14147 1939 50 WP MM NOT_NAMED 1939-08-15 10:00:00 NR 18.5000 138.300 main 1542 1504 __________O___ -1 18.5000 138.300 7 10 270
1939223N14147 1939 50 WP MM NOT_NAMED 1939-08-15 12:00:00 NR 18.4994 137.941 main 1504 1457 __________P___ -1 18.4994 137.941 7 11 270
1939223N14147 1939 50 WP MM NOT_NAMED 1939-08-15 15:00:00 NR 18.4988 137.378 main 1457 1401 __________P___ -1 18.4988 137.378 7 11 270
1939223N14147 1939 50 WP MM NOT_NAMED 1939-08-15 18:00:00 NR 18.4987 136.777 main 1401 1337 __________P___ -1 18.4987 136.777 7 12 270
1939223N14147 1939 50 WP MM NOT_NAMED 1939-08-15 21:00:00 NR 18.4995 136.128 main 1337 1319 __________P___ -1 18.4995 136.128 7 12 270
1939223N14147 1939 50 WP MM NOT_NAMED 1939-08-15 22:00:00 NR 18.5000 135.900 main 1319 1274 __________O___ -1 18.5000 135.900 7 14 270
1939223N14147 1939 50 WP MM NOT_NAMED 1939-08-16 00:00:00 NR 18.4977 135.413 main 1274 1203 __________P___ -1 18.4977 135.413 7 14 270
1939223N14147 1939 50 WP MM NOT_NAMED 1939-08-16 03:00:00 NR 18.4940 134.637 main 1203 1127 __________P___ -1 18.4940 134.637 7 15 270
1939223N14147 1939 50 WP MM NOT_NAMED 1939-08-16 06:00:00 NR 18.4926 133.840 main 1127 1062 __________P___ -1 18.4926 133.840 7 15 270
1939223N14147 1939 50 WP MM NOT_NAMED 1939-08-16 09:00:00 NR 18.4967 133.053 main 1062 1034 __________P___ -1 18.4967 133.053 7 15 270
1939223N14147 1939 50 WP MM NOT_NAMED 1939-08-16 10:00:00 NR 18.5000 132.800 main 1034 988 __________O___ -1 18.5000 132.800 7 14 271
1939223N14147 1939 50 WP MM NOT_NAMED 1939-08-16 12:00:00 NR 18.5099 132.311 main 988 925 __________P___ -1 18.5099 132.311 7 13 272
1939223N14147 1939 50 WP MM NOT_NAMED 1939-08-16 15:00:00 NR 18.5319 131.616 main 925 879 __________P___ -1 18.5319 131.616 7 13 272
1939223N14147 1939 50 WP MM NOT_NAMED 1939-08-16 18:00:00 NR 18.5597 130.955 main 879 820 __________P___ -1 18.5597 130.955 7 12 273
1939223N14147 1939 50 WP MM NOT_NAMED 1939-08-16 21:00:00 NR 18.5899 130.312 main 820 804 __________P___ -1 18.5899 130.312 7 12 273
1939223N14147 1939 50 WP MM NOT_NAMED 1939-08-16 22:00:00 NR 18.6000 130.100 main 804 __________O___ -1 18.6000 130.100 7 12 273

Digital Typhoon Data and Search

About IBTrACS Database

This database is a web-friendly format of International Best Track Archive for Climate Stewardship (IBTrACS), a global best track data archive curated by NOAA dating back to 1842.

Updated: 2021-10-08